Forside
METAR-TAF:

METAR-TAF

Lufthavne :

Olieplatform

D15-fa-1, Holland

Breddekreds: 54-19-32N, længdekreds: 2-56-09E, højde: 36 m

Aktuelle vejr

Denne rapport blev lavet for 28 minutter siden, kl. 17:25 UTC
Vind 36 kt fra vestnordvest
Temperatur 7°C
Fugtighed 70%
Tryk 1011 hPa
Sigt 10 km eller mere

METAR: EHDV 231725Z AUTO 29036KT 9999 FEW025/// SCT029/// BKN034/// 07/02 Q1011

Tid: 18:53 (17:53 UTC)


TAF: fraværende

Vejrobservationer og prognoser fra mere end 4000 lufthavne (METAR og TAF).

De gule og røde prikker repræsenterer de meteorologiske stationer.

Flyt musen over at se navnet på stationen.

Så klik over at se vejr observationer og prognoser.

At skifte det kort: Klik på de grønne knapper med et sort kors for at zoome ind; på den grønne knap med en bindestreg for at zoome ud; eller på de grønne pile for tilstødende kort.


METAR-TAF: